sensor_id;sensor_type;location;lat;lon;timestamp;P1;durP1;ratioP1;P2;durP2;ratioP2
31043;SDS011;17710;52.520;13.352;2024-01-30T00:00:53;11.88;;;5.95;;
31043;SDS011;17710;52.520;13.352;2024-01-30T00:03:21;13.90;;;6.22;;
31043;SDS011;17710;52.520;13.352;2024-01-30T00:05:48;11.85;;;6.22;;
31043;SDS011;17710;52.520;13.352;2024-01-30T00:08:14;9.70;;;5.15;;
31043;SDS011;17710;52.520;13.352;2024-01-30T00:10:40;12.20;;;5.90;;
31043;SDS011;17710;52.520;13.352;2024-01-30T00:13:07;9.15;;;5.13;;
31043;SDS011;17710;52.520;13.352;2024-01-30T00:15:34;17.25;;;6.22;;
31043;SDS011;17710;52.520;13.352;2024-01-30T00:18:00;13.40;;;5.57;;
31043;SDS011;17710;52.520;13.352;2024-01-30T00:20:28;14.38;;;5.93;;
31043;SDS011;17710;52.520;13.352;2024-01-30T00:22:54;14.52;;;6.28;;
31043;SDS011;17710;52.520;13.352;2024-01-30T00:27:46;12.40;;;5.70;;
31043;SDS011;17710;52.520;13.352;2024-01-30T00:30:13;13.45;;;6.10;;
31043;SDS011;17710;52.520;13.352;2024-01-30T00:32:40;11.77;;;5.72;;
31043;SDS011;17710;52.520;13.352;2024-01-30T00:35:06;14.35;;;6.18;;
31043;SDS011;17710;52.520;13.352;2024-01-30T00:37:36;13.60;;;6.88;;
31043;SDS011;17710;52.520;13.352;2024-01-30T00:40:02;13.13;;;5.88;;
31043;SDS011;17710;52.520;13.352;2024-01-30T00:42:31;11.90;;;5.53;;
31043;SDS011;17710;52.520;13.352;2024-01-30T00:44:57;15.40;;;6.63;;
31043;SDS011;17710;52.520;13.352;2024-01-30T00:47:24;11.05;;;5.80;;
31043;SDS011;17710;52.520;13.352;2024-01-30T00:49:50;8.27;;;5.18;;
31043;SDS011;17710;52.520;13.352;2024-01-30T00:52:17;16.48;;;6.53;;
31043;SDS011;17710;52.520;13.352;2024-01-30T00:54:44;11.40;;;5.90;;
31043;SDS011;17710;52.520;13.352;2024-01-30T00:57:11;12.05;;;6.25;;
31043;SDS011;17710;52.520;13.352;2024-01-30T00:59:37;13.25;;;6.13;;
31043;SDS011;17710;52.520;13.352;2024-01-30T01:02:04;13.18;;;5.63;;
31043;SDS011;17710;52.520;13.352;2024-01-30T01:04:30;15.18;;;6.18;;
31043;SDS011;17710;52.520;13.352;2024-01-30T01:06:56;13.88;;;5.65;;
31043;SDS011;17710;52.520;13.352;2024-01-30T01:09:23;11.60;;;5.65;;
31043;SDS011;17710;52.520;13.352;2024-01-30T01:11:51;11.45;;;6.28;;
31043;SDS011;17710;52.520;13.352;2024-01-30T01:14:17;14.80;;;5.80;;
31043;SDS011;17710;52.520;13.352;2024-01-30T01:16:43;13.15;;;5.40;;
31043;SDS011;17710;52.520;13.352;2024-01-30T01:19:10;13.48;;;6.82;;
31043;SDS011;17710;52.520;13.352;2024-01-30T01:21:36;14.00;;;5.95;;
31043;SDS011;17710;52.520;13.352;2024-01-30T01:24:03;16.98;;;5.50;;
31043;SDS011;17710;52.520;13.352;2024-01-30T01:26:30;11.77;;;5.90;;
31043;SDS011;17710;52.520;13.352;2024-01-30T01:28:57;14.68;;;6.15;;
31043;SDS011;17710;52.520;13.352;2024-01-30T01:31:24;9.80;;;5.68;;
31043;SDS011;17710;52.520;13.352;2024-01-30T01:33:54;20.00;;;6.45;;
31043;SDS011;17710;52.520;13.352;2024-01-30T01:36:20;12.55;;;5.70;;
31043;SDS011;17710;52.520;13.352;2024-01-30T01:38:47;12.95;;;5.95;;
31043;SDS011;17710;52.520;13.352;2024-01-30T01:41:13;15.32;;;6.38;;
31043;SDS011;17710;52.520;13.352;2024-01-30T01:43:39;12.55;;;5.53;;
31043;SDS011;17710;52.520;13.352;2024-01-30T01:46:07;15.23;;;5.88;;
31043;SDS011;17710;52.520;13.352;2024-01-30T01:48:34;11.48;;;6.05;;
31043;SDS011;17710;52.520;13.352;2024-01-30T01:51:02;10.98;;;5.47;;
31043;SDS011;17710;52.520;13.352;2024-01-30T01:53:28;11.68;;;5.70;;
31043;SDS011;17710;52.520;13.352;2024-01-30T01:55:55;13.23;;;5.55;;
31043;SDS011;17710;52.520;13.352;2024-01-30T01:58:23;14.25;;;6.28;;
31043;SDS011;17710;52.520;13.352;2024-01-30T02:00:54;15.75;;;6.13;;
31043;SDS011;17710;52.520;13.352;2024-01-30T02:03:24;13.85;;;6.13;;
31043;SDS011;17710;52.520;13.352;2024-01-30T02:05:50;12.10;;;6.15;;
31043;SDS011;17710;52.520;13.352;2024-01-30T02:08:16;13.65;;;5.80;;
31043;SDS011;17710;52.520;13.352;2024-01-30T02:10:43;13.18;;;5.68;;
31043;SDS011;17710;52.520;13.352;2024-01-30T02:13:09;12.32;;;5.88;;
31043;SDS011;17710;52.520;13.352;2024-01-30T02:15:36;11.35;;;5.78;;
31043;SDS011;17710;52.520;13.352;2024-01-30T02:18:02;11.95;;;5.82;;
31043;SDS011;17710;52.520;13.352;2024-01-30T02:20:30;11.32;;;5.95;;
31043;SDS011;17710;52.520;13.352;2024-01-30T02:23:00;13.68;;;6.53;;
31043;SDS011;17710;52.520;13.352;2024-01-30T02:25:30;14.43;;;6.38;;
31043;SDS011;17710;52.520;13.352;2024-01-30T02:27:57;14.70;;;6.18;;
31043;SDS011;17710;52.520;13.352;2024-01-30T02:30:24;14.43;;;5.85;;
31043;SDS011;17710;52.520;13.352;2024-01-30T02:32:50;11.57;;;5.70;;
31043;SDS011;17710;52.520;13.352;2024-01-30T02:35:16;14.00;;;6.15;;
31043;SDS011;17710;52.520;13.352;2024-01-30T02:37:43;14.20;;;5.78;;
31043;SDS011;17710;52.520;13.352;2024-01-30T02:40:11;17.88;;;6.38;;
31043;SDS011;17710;52.520;13.352;2024-01-30T02:42:37;13.18;;;6.47;;
31043;SDS011;17710;52.520;13.352;2024-01-30T02:45:04;12.38;;;6.05;;
31043;SDS011;17710;52.520;13.352;2024-01-30T02:47:31;12.35;;;5.78;;
31043;SDS011;17710;52.520;13.352;2024-01-30T02:49:57;16.52;;;6.85;;
31043;SDS011;17710;52.520;13.352;2024-01-30T02:52:23;21.65;;;7.32;;
31043;SDS011;17710;52.520;13.352;2024-01-30T02:54:50;11.27;;;6.32;;
31043;SDS011;17710;52.520;13.352;2024-01-30T02:57:17;10.48;;;5.85;;
31043;SDS011;17710;52.520;13.352;2024-01-30T02:59:44;8.93;;;5.20;;
31043;SDS011;17710;52.520;13.352;2024-01-30T03:02:10;13.68;;;6.05;;
31043;SDS011;17710;52.520;13.352;2024-01-30T03:04:37;13.48;;;6.13;;
31043;SDS011;17710;52.520;13.352;2024-01-30T03:07:03;13.35;;;5.57;;
31043;SDS011;17710;52.520;13.352;2024-01-30T03:09:30;11.48;;;5.85;;
31043;SDS011;17710;52.520;13.352;2024-01-30T03:11:56;13.57;;;6.95;;
31043;SDS011;17710;52.520;13.352;2024-01-30T03:14:24;15.75;;;6.28;;
31043;SDS011;17710;52.520;13.352;2024-01-30T03:16:51;13.60;;;6.18;;
31043;SDS011;17710;52.520;13.352;2024-01-30T03:19:17;13.23;;;6.97;;
31043;SDS011;17710;52.520;13.352;2024-01-30T03:21:44;12.95;;;6.05;;
31043;SDS011;17710;52.520;13.352;2024-01-30T03:24:10;15.57;;;6.45;;
31043;SDS011;17710;52.520;13.352;2024-01-30T03:26:36;14.38;;;6.47;;
31043;SDS011;17710;52.520;13.352;2024-01-30T03:29:03;11.95;;;6.25;;
31043;SDS011;17710;52.520;13.352;2024-01-30T03:31:31;12.50;;;6.22;;
31043;SDS011;17710;52.520;13.352;2024-01-30T03:33:57;13.05;;;6.60;;
31043;SDS011;17710;52.520;13.352;2024-01-30T03:36:23;11.45;;;6.07;;
31043;SDS011;17710;52.520;13.352;2024-01-30T03:38:50;15.02;;;6.20;;
31043;SDS011;17710;52.520;13.352;2024-01-30T03:41:16;13.80;;;6.57;;
31043;SDS011;17710;52.520;13.352;2024-01-30T03:43:42;13.43;;;5.95;;
31043;SDS011;17710;52.520;13.352;2024-01-30T03:46:09;13.07;;;7.05;;
31043;SDS011;17710;52.520;13.352;2024-01-30T03:48:39;11.15;;;5.88;;
31043;SDS011;17710;52.520;13.352;2024-01-30T03:51:05;16.15;;;6.85;;
31043;SDS011;17710;52.520;13.352;2024-01-30T03:53:31;11.35;;;5.95;;
31043;SDS011;17710;52.520;13.352;2024-01-30T03:55:58;13.00;;;6.40;;
31043;SDS011;17710;52.520;13.352;2024-01-30T03:58:24;12.65;;;6.65;;
31043;SDS011;17710;52.520;13.352;2024-01-30T04:00:51;14.50;;;6.80;;
31043;SDS011;17710;52.520;13.352;2024-01-30T04:03:17;13.57;;;6.82;;
31043;SDS011;17710;52.520;13.352;2024-01-30T04:05:45;16.48;;;6.47;;
31043;SDS011;17710;52.520;13.352;2024-01-30T04:08:11;14.90;;;6.60;;
31043;SDS011;17710;52.520;13.352;2024-01-30T04:10:38;11.80;;;6.00;;
31043;SDS011;17710;52.520;13.352;2024-01-30T04:13:04;15.55;;;7.10;;
31043;SDS011;17710;52.520;13.352;2024-01-30T04:15:30;14.98;;;6.10;;
31043;SDS011;17710;52.520;13.352;2024-01-30T04:17:57;13.98;;;6.60;;
31043;SDS011;17710;52.520;13.352;2024-01-30T04:20:24;13.57;;;6.63;;
31043;SDS011;17710;52.520;13.352;2024-01-30T04:22:52;13.05;;;6.45;;
31043;SDS011;17710;52.520;13.352;2024-01-30T04:25:19;12.52;;;6.05;;
31043;SDS011;17710;52.520;13.352;2024-01-30T04:27:45;15.68;;;6.68;;
31043;SDS011;17710;52.520;13.352;2024-01-30T04:30:11;14.88;;;6.25;;
31043;SDS011;17710;52.520;13.352;2024-01-30T04:32:38;14.07;;;6.32;;
31043;SDS011;17710;52.520;13.352;2024-01-30T04:35:05;14.27;;;6.43;;
31043;SDS011;17710;52.520;13.352;2024-01-30T04:37:31;13.68;;;6.93;;
31043;SDS011;17710;52.520;13.352;2024-01-30T04:39:59;14.52;;;6.80;;
31043;SDS011;17710;52.520;13.352;2024-01-30T04:42:25;17.70;;;6.45;;
31043;SDS011;17710;52.520;13.352;2024-01-30T04:44:52;14.60;;;5.97;;
31043;SDS011;17710;52.520;13.352;2024-01-30T04:47:18;13.43;;;5.90;;
31043;SDS011;17710;52.520;13.352;2024-01-30T04:49:44;14.75;;;6.47;;
31043;SDS011;17710;52.520;13.352;2024-01-30T04:52:11;14.18;;;6.57;;
31043;SDS011;17710;52.520;13.352;2024-01-30T04:54:37;14.13;;;6.10;;
31043;SDS011;17710;52.520;13.352;2024-01-30T04:57:05;12.48;;;6.30;;
31043;SDS011;17710;52.520;13.352;2024-01-30T04:59:34;14.27;;;6.03;;
31043;SDS011;17710;52.520;13.352;2024-01-30T05:02:01;15.73;;;7.05;;
31043;SDS011;17710;52.520;13.352;2024-01-30T05:04:27;14.10;;;6.45;;
31043;SDS011;17710;52.520;13.352;2024-01-30T05:06:53;13.63;;;6.43;;
31043;SDS011;17710;52.520;13.352;2024-01-30T05:09:20;14.88;;;7.00;;
31043;SDS011;17710;52.520;13.352;2024-01-30T05:11:47;14.43;;;6.70;;
31043;SDS011;17710;52.520;13.352;2024-01-30T05:14:15;11.85;;;5.65;;
31043;SDS011;17710;52.520;13.352;2024-01-30T05:16:41;11.13;;;5.93;;
31043;SDS011;17710;52.520;13.352;2024-01-30T05:19:11;11.07;;;6.35;;
31043;SDS011;17710;52.520;13.352;2024-01-30T05:21:38;12.40;;;5.93;;
31043;SDS011;17710;52.520;13.352;2024-01-30T05:24:04;11.13;;;6.13;;
31043;SDS011;17710;52.520;13.352;2024-01-30T05:26:33;9.70;;;6.53;;
31043;SDS011;17710;52.520;13.352;2024-01-30T05:28:59;12.32;;;6.18;;
31043;SDS011;17710;52.520;13.352;2024-01-30T05:31:27;14.00;;;6.65;;
31043;SDS011;17710;52.520;13.352;2024-01-30T05:33:54;19.15;;;6.28;;
31043;SDS011;17710;52.520;13.352;2024-01-30T05:36:20;12.43;;;6.22;;
31043;SDS011;17710;52.520;13.352;2024-01-30T05:38:46;14.13;;;6.45;;
31043;SDS011;17710;52.520;13.352;2024-01-30T05:41:13;14.75;;;7.20;;
31043;SDS011;17710;52.520;13.352;2024-01-30T05:43:39;13.57;;;6.25;;
31043;SDS011;17710;52.520;13.352;2024-01-30T05:46:06;13.43;;;6.25;;
31043;SDS011;17710;52.520;13.352;2024-01-30T05:48:34;13.55;;;6.47;;
31043;SDS011;17710;52.520;13.352;2024-01-30T05:51:00;13.77;;;6.13;;
31043;SDS011;17710;52.520;13.352;2024-01-30T05:53:27;16.90;;;6.53;;
31043;SDS011;17710;52.520;13.352;2024-01-30T05:55:53;17.45;;;6.43;;
31043;SDS011;17710;52.520;13.352;2024-01-30T05:58:19;14.50;;;6.68;;
31043;SDS011;17710;52.520;13.352;2024-01-30T06:00:46;13.60;;;6.45;;
31043;SDS011;17710;52.520;13.352;2024-01-30T06:03:13;14.77;;;6.72;;
31043;SDS011;17710;52.520;13.352;2024-01-30T06:05:40;14.43;;;6.30;;
31043;SDS011;17710;52.520;13.352;2024-01-30T06:08:07;14.25;;;6.18;;
31043;SDS011;17710;52.520;13.352;2024-01-30T06:10:33;12.23;;;6.15;;
31043;SDS011;17710;52.520;13.352;2024-01-30T06:13:00;12.65;;;6.28;;
31043;SDS011;17710;52.520;13.352;2024-01-30T06:15:26;15.32;;;6.65;;
31043;SDS011;17710;52.520;13.352;2024-01-30T06:17:54;11.95;;;6.15;;
31043;SDS011;17710;52.520;13.352;2024-01-30T06:20:21;13.20;;;6.63;;
31043;SDS011;17710;52.520;13.352;2024-01-30T06:22:48;18.00;;;6.75;;
31043;SDS011;17710;52.520;13.352;2024-01-30T06:25:15;13.95;;;5.75;;
31043;SDS011;17710;52.520;13.352;2024-01-30T06:27:41;11.85;;;6.60;;
31043;SDS011;17710;52.520;13.352;2024-01-30T06:30:08;16.48;;;6.55;;
31043;SDS011;17710;52.520;13.352;2024-01-30T06:32:35;12.68;;;6.35;;
31043;SDS011;17710;52.520;13.352;2024-01-30T06:35:02;13.48;;;6.40;;
31043;SDS011;17710;52.520;13.352;2024-01-30T06:37:29;14.95;;;7.22;;
31043;SDS011;17710;52.520;13.352;2024-01-30T06:39:57;14.60;;;6.72;;
31043;SDS011;17710;52.520;13.352;2024-01-30T06:42:23;18.25;;;7.57;;
31043;SDS011;17710;52.520;13.352;2024-01-30T06:44:50;14.75;;;6.60;;
31043;SDS011;17710;52.520;13.352;2024-01-30T06:47:16;14.70;;;7.00;;
31043;SDS011;17710;52.520;13.352;2024-01-30T06:49:42;13.40;;;7.10;;
31043;SDS011;17710;52.520;13.352;2024-01-30T06:52:10;13.90;;;6.95;;
31043;SDS011;17710;52.520;13.352;2024-01-30T06:54:36;12.27;;;6.32;;
31043;SDS011;17710;52.520;13.352;2024-01-30T06:57:04;17.55;;;7.57;;
31043;SDS011;17710;52.520;13.352;2024-01-30T06:59:33;21.90;;;6.80;;
31043;SDS011;17710;52.520;13.352;2024-01-30T07:02:00;16.20;;;7.00;;
31043;SDS011;17710;52.520;13.352;2024-01-30T07:04:27;18.33;;;7.28;;
31043;SDS011;17710;52.520;13.352;2024-01-30T07:06:53;13.18;;;7.28;;
31043;SDS011;17710;52.520;13.352;2024-01-30T07:09:19;13.63;;;6.75;;
31043;SDS011;17710;52.520;13.352;2024-01-30T07:11:46;25.50;;;8.40;;
31043;SDS011;17710;52.520;13.352;2024-01-30T07:14:16;17.02;;;7.30;;
31043;SDS011;17710;52.520;13.352;2024-01-30T07:16:43;18.80;;;7.68;;
31043;SDS011;17710;52.520;13.352;2024-01-30T07:19:09;17.63;;;7.10;;
31043;SDS011;17710;52.520;13.352;2024-01-30T07:21:36;16.60;;;7.93;;
31043;SDS011;17710;52.520;13.352;2024-01-30T07:24:03;22.40;;;7.43;;
31043;SDS011;17710;52.520;13.352;2024-01-30T07:26:30;15.70;;;7.43;;
31043;SDS011;17710;52.520;13.352;2024-01-30T07:28:56;19.65;;;7.70;;
31043;SDS011;17710;52.520;13.352;2024-01-30T07:31:24;18.92;;;7.28;;
31043;SDS011;17710;52.520;13.352;2024-01-30T07:33:50;18.73;;;8.10;;
31043;SDS011;17710;52.520;13.352;2024-01-30T07:36:17;17.80;;;7.70;;
31043;SDS011;17710;52.520;13.352;2024-01-30T07:38:43;19.15;;;7.90;;
31043;SDS011;17710;52.520;13.352;2024-01-30T07:41:09;18.15;;;7.97;;
31043;SDS011;17710;52.520;13.352;2024-01-30T07:43:37;18.38;;;8.13;;
31043;SDS011;17710;52.520;13.352;2024-01-30T07:46:04;16.83;;;8.10;;
31043;SDS011;17710;52.520;13.352;2024-01-30T07:48:32;22.80;;;8.75;;
31043;SDS011;17710;52.520;13.352;2024-01-30T07:50:59;18.13;;;8.18;;
31043;SDS011;17710;52.520;13.352;2024-01-30T07:53:28;19.27;;;7.28;;
31043;SDS011;17710;52.520;13.352;2024-01-30T07:55:54;19.50;;;7.97;;
31043;SDS011;17710;52.520;13.352;2024-01-30T07:58:20;19.75;;;8.05;;
31043;SDS011;17710;52.520;13.352;2024-01-30T08:00:48;17.40;;;7.80;;
31043;SDS011;17710;52.520;13.352;2024-01-30T08:03:16;22.67;;;8.30;;
31043;SDS011;17710;52.520;13.352;2024-01-30T08:05:44;18.48;;;8.05;;
31043;SDS011;17710;52.520;13.352;2024-01-30T08:08:11;22.83;;;8.95;;
31043;SDS011;17710;52.520;13.352;2024-01-30T08:10:37;18.67;;;8.23;;
31043;SDS011;17710;52.520;13.352;2024-01-30T08:13:03;24.13;;;8.15;;
31043;SDS011;17710;52.520;13.352;2024-01-30T08:15:30;15.48;;;8.50;;
31043;SDS011;17710;52.520;13.352;2024-01-30T08:17:56;24.40;;;8.38;;
31043;SDS011;17710;52.520;13.352;2024-01-30T08:20:23;19.15;;;7.90;;
31043;SDS011;17710;52.520;13.352;2024-01-30T08:22:50;16.45;;;8.15;;
31043;SDS011;17710;52.520;13.352;2024-01-30T08:25:17;21.83;;;8.73;;
31043;SDS011;17710;52.520;13.352;2024-01-30T08:27:43;22.17;;;8.75;;
31043;SDS011;17710;52.520;13.352;2024-01-30T08:30:10;17.33;;;8.70;;
31043;SDS011;17710;52.520;13.352;2024-01-30T08:32:37;28.85;;;8.55;;
31043;SDS011;17710;52.520;13.352;2024-01-30T08:35:04;17.23;;;7.50;;
31043;SDS011;17710;52.520;13.352;2024-01-30T08:37:31;21.98;;;8.88;;
31043;SDS011;17710;52.520;13.352;2024-01-30T08:39:59;21.52;;;8.30;;
31043;SDS011;17710;52.520;13.352;2024-01-30T08:42:27;17.58;;;8.90;;
31043;SDS011;17710;52.520;13.352;2024-01-30T08:44:53;18.40;;;8.70;;
31043;SDS011;17710;52.520;13.352;2024-01-30T08:47:20;17.05;;;8.68;;
31043;SDS011;17710;52.520;13.352;2024-01-30T08:49:47;25.90;;;8.50;;
31043;SDS011;17710;52.520;13.352;2024-01-30T08:52:13;30.08;;;9.38;;
31043;SDS011;17710;52.520;13.352;2024-01-30T08:54:39;32.65;;;9.05;;
31043;SDS011;17710;52.520;13.352;2024-01-30T08:57:07;23.95;;;11.88;;
31043;SDS011;17710;52.520;13.352;2024-01-30T08:59:33;16.13;;;7.38;;
31043;SDS011;17710;52.520;13.352;2024-01-30T09:02:00;17.85;;;8.52;;
31043;SDS011;17710;52.520;13.352;2024-01-30T09:04:27;30.20;;;8.40;;
31043;SDS011;17710;52.520;13.352;2024-01-30T09:06:53;15.18;;;7.70;;
31043;SDS011;17710;52.520;13.352;2024-01-30T09:09:20;14.18;;;6.95;;
31043;SDS011;17710;52.520;13.352;2024-01-30T09:11:47;13.90;;;7.10;;
31043;SDS011;17710;52.520;13.352;2024-01-30T09:14:14;36.40;;;8.70;;
31043;SDS011;17710;52.520;13.352;2024-01-30T09:16:40;15.32;;;7.55;;
31043;SDS011;17710;52.520;13.352;2024-01-30T09:19:07;18.83;;;7.40;;
31043;SDS011;17710;52.520;13.352;2024-01-30T09:21:33;17.30;;;7.30;;
31043;SDS011;17710;52.520;13.352;2024-01-30T09:24:01;18.20;;;8.20;;
31043;SDS011;17710;52.520;13.352;2024-01-30T09:26:28;15.88;;;7.30;;
31043;SDS011;17710;52.520;13.352;2024-01-30T09:28:55;26.75;;;8.10;;
31043;SDS011;17710;52.520;13.352;2024-01-30T09:31:22;16.83;;;8.38;;
31043;SDS011;17710;52.520;13.352;2024-01-30T09:33:49;14.70;;;7.25;;
31043;SDS011;17710;52.520;13.352;2024-01-30T09:36:16;30.52;;;7.47;;
31043;SDS011;17710;52.520;13.352;2024-01-30T09:38:44;37.03;;;8.23;;
31043;SDS011;17710;52.520;13.352;2024-01-30T09:41:11;15.13;;;7.50;;
31043;SDS011;17710;52.520;13.352;2024-01-30T09:43:37;33.00;;;9.60;;
31043;SDS011;17710;52.520;13.352;2024-01-30T09:46:05;18.38;;;7.95;;
31043;SDS011;17710;52.520;13.352;2024-01-30T09:48:33;22.23;;;8.18;;
31043;SDS011;17710;52.520;13.352;2024-01-30T09:51:00;15.93;;;7.65;;
31043;SDS011;17710;52.520;13.352;2024-01-30T09:53:27;15.65;;;6.90;;
31043;SDS011;17710;52.520;13.352;2024-01-30T09:55:54;13.80;;;7.45;;
31043;SDS011;17710;52.520;13.352;2024-01-30T09:58:20;15.35;;;7.22;;
31043;SDS011;17710;52.520;13.352;2024-01-30T10:00:47;25.30;;;8.32;;
31043;SDS011;17710;52.520;13.352;2024-01-30T10:03:13;16.35;;;7.45;;
31043;SDS011;17710;52.520;13.352;2024-01-30T10:05:41;13.32;;;7.70;;
31043;SDS011;17710;52.520;13.352;2024-01-30T10:08:16;14.93;;;7.72;;
31043;SDS011;17710;52.520;13.352;2024-01-30T10:10:45;14.90;;;6.90;;
31043;SDS011;17710;52.520;13.352;2024-01-30T10:13:11;15.63;;;6.88;;
31043;SDS011;17710;52.520;13.352;2024-01-30T10:15:37;15.05;;;7.05;;
31043;SDS011;17710;52.520;13.352;2024-01-30T10:18:05;14.65;;;6.75;;
31043;SDS011;17710;52.520;13.352;2024-01-30T10:20:32;16.17;;;6.93;;
31043;SDS011;17710;52.520;13.352;2024-01-30T10:23:00;14.65;;;6.68;;
31043;SDS011;17710;52.520;13.352;2024-01-30T10:25:26;13.98;;;6.93;;
31043;SDS011;17710;52.520;13.352;2024-01-30T10:27:53;16.95;;;6.53;;
31043;SDS011;17710;52.520;13.352;2024-01-30T10:30:20;12.60;;;6.53;;
31043;SDS011;17710;52.520;13.352;2024-01-30T10:32:47;11.18;;;6.22;;
31043;SDS011;17710;52.520;13.352;2024-01-30T10:35:13;12.50;;;6.22;;
31043;SDS011;17710;52.520;13.352;2024-01-30T10:37:40;15.27;;;6.13;;
31043;SDS011;17710;52.520;13.352;2024-01-30T10:40:11;13.50;;;6.47;;
31043;SDS011;17710;52.520;13.352;2024-01-30T10:42:41;13.35;;;6.35;;
31043;SDS011;17710;52.520;13.352;2024-01-30T10:45:09;16.05;;;6.50;;
31043;SDS011;17710;52.520;13.352;2024-01-30T10:47:37;16.50;;;6.25;;
31043;SDS011;17710;52.520;13.352;2024-01-30T10:50:07;13.00;;;6.20;;
31043;SDS011;17710;52.520;13.352;2024-01-30T10:52:35;15.95;;;6.25;;
31043;SDS011;17710;52.520;13.352;2024-01-30T10:55:03;17.25;;;6.88;;
31043;SDS011;17710;52.520;13.352;2024-01-30T10:57:32;14.13;;;6.22;;
31043;SDS011;17710;52.520;13.352;2024-01-30T11:00:00;10.25;;;6.07;;
31043;SDS011;17710;52.520;13.352;2024-01-30T11:02:30;15.00;;;6.00;;
31043;SDS011;17710;52.520;13.352;2024-01-30T11:04:59;14.25;;;5.70;;
31043;SDS011;17710;52.520;13.352;2024-01-30T11:07:26;21.58;;;6.47;;
31043;SDS011;17710;52.520;13.352;2024-01-30T11:09:59;12.25;;;6.15;;
31043;SDS011;17710;52.520;13.352;2024-01-30T11:12:27;15.65;;;6.53;;
31043;SDS011;17710;52.520;13.352;2024-01-30T11:15:03;21.63;;;6.93;;
31043;SDS011;17710;52.520;13.352;2024-01-30T11:17:43;12.02;;;5.97;;
31043;SDS011;17710;52.520;13.352;2024-01-30T11:20:11;23.13;;;7.05;;
31043;SDS011;17710;52.520;13.352;2024-01-30T11:22:41;11.32;;;5.85;;
31043;SDS011;17710;52.520;13.352;2024-01-30T11:25:11;15.00;;;5.93;;
31043;SDS011;17710;52.520;13.352;2024-01-30T11:27:38;13.07;;;6.13;;
31043;SDS011;17710;52.520;13.352;2024-01-30T11:30:06;12.60;;;6.20;;
31043;SDS011;17710;52.520;13.352;2024-01-30T11:32:34;19.52;;;6.95;;
31043;SDS011;17710;52.520;13.352;2024-01-30T11:35:00;17.20;;;6.63;;
31043;SDS011;17710;52.520;13.352;2024-01-30T11:37:30;13.00;;;6.18;;
31043;SDS011;17710;52.520;13.352;2024-01-30T11:39:57;20.23;;;6.90;;
31043;SDS011;17710;52.520;13.352;2024-01-30T11:42:24;12.13;;;6.68;;
31043;SDS011;17710;52.520;13.352;2024-01-30T11:44:53;21.60;;;6.80;;
31043;SDS011;17710;52.520;13.352;2024-01-30T11:47:21;35.08;;;8.02;;
31043;SDS011;17710;52.520;13.352;2024-01-30T11:49:48;13.23;;;5.97;;
31043;SDS011;17710;52.520;13.352;2024-01-30T11:52:15;10.82;;;5.40;;
31043;SDS011;17710;52.520;13.352;2024-01-30T11:54:42;17.83;;;6.30;;
31043;SDS011;17710;52.520;13.352;2024-01-30T11:57:08;25.30;;;6.82;;
31043;SDS011;17710;52.520;13.352;2024-01-30T11:59:35;17.05;;;6.70;;
31043;SDS011;17710;52.520;13.352;2024-01-30T12:02:01;29.40;;;7.32;;
31043;SDS011;17710;52.520;13.352;2024-01-30T12:04:29;11.98;;;6.18;;
31043;SDS011;17710;52.520;13.352;2024-01-30T12:06:56;13.30;;;6.35;;
31043;SDS011;17710;52.520;13.352;2024-01-30T12:09:22;11.80;;;6.55;;
31043;SDS011;17710;52.520;13.352;2024-01-30T12:11:49;17.60;;;6.70;;
31043;SDS011;17710;52.520;13.352;2024-01-30T12:14:16;12.18;;;6.55;;
31043;SDS011;17710;52.520;13.352;2024-01-30T12:16:47;14.07;;;7.05;;
31043;SDS011;17710;52.520;13.352;2024-01-30T12:19:20;11.98;;;6.30;;
31043;SDS011;17710;52.520;13.352;2024-01-30T12:21:53;14.43;;;5.97;;
31043;SDS011;17710;52.520;13.352;2024-01-30T12:24:20;15.20;;;6.63;;
31043;SDS011;17710;52.520;13.352;2024-01-30T12:26:47;19.25;;;6.53;;
31043;SDS011;17710;52.520;13.352;2024-01-30T12:29:14;21.40;;;7.25;;
31043;SDS011;17710;52.520;13.352;2024-01-30T12:31:41;14.38;;;6.57;;
31043;SDS011;17710;52.520;13.352;2024-01-30T12:34:08;12.05;;;6.13;;
31043;SDS011;17710;52.520;13.352;2024-01-30T12:36:34;15.50;;;7.43;;
31043;SDS011;17710;52.520;13.352;2024-01-30T12:39:02;18.02;;;7.10;;
31043;SDS011;17710;52.520;13.352;2024-01-30T12:41:30;21.58;;;7.30;;
31043;SDS011;17710;52.520;13.352;2024-01-30T12:43:57;18.17;;;7.05;;
31043;SDS011;17710;52.520;13.352;2024-01-30T12:46:25;20.92;;;7.00;;
31043;SDS011;17710;52.520;13.352;2024-01-30T12:48:53;14.25;;;6.68;;
31043;SDS011;17710;52.520;13.352;2024-01-30T12:51:20;12.43;;;6.47;;
31043;SDS011;17710;52.520;13.352;2024-01-30T12:53:46;22.25;;;12.60;;
31043;SDS011;17710;52.520;13.352;2024-01-30T12:56:15;17.63;;;10.32;;
31043;SDS011;17710;52.520;13.352;2024-01-30T12:58:42;20.42;;;8.00;;
31043;SDS011;17710;52.520;13.352;2024-01-30T13:01:08;12.32;;;6.72;;
31043;SDS011;17710;52.520;13.352;2024-01-30T13:03:35;14.48;;;6.78;;
31043;SDS011;17710;52.520;13.352;2024-01-30T13:06:02;14.55;;;7.10;;
31043;SDS011;17710;52.520;13.352;2024-01-30T13:08:29;17.08;;;6.40;;
31043;SDS011;17710;52.520;13.352;2024-01-30T13:10:55;19.55;;;7.00;;
31043;SDS011;17710;52.520;13.352;2024-01-30T13:13:23;15.57;;;6.95;;
31043;SDS011;17710;52.520;13.352;2024-01-30T13:15:49;11.93;;;6.28;;
31043;SDS011;17710;52.520;13.352;2024-01-30T13:18:16;14.02;;;6.60;;
31043;SDS011;17710;52.520;13.352;2024-01-30T13:20:42;12.98;;;6.78;;
31043;SDS011;17710;52.520;13.352;2024-01-30T13:23:09;14.18;;;6.85;;
31043;SDS011;17710;52.520;13.352;2024-01-30T13:25:35;13.90;;;7.00;;
31043;SDS011;17710;52.520;13.352;2024-01-30T13:28:02;12.73;;;7.07;;
31043;SDS011;17710;52.520;13.352;2024-01-30T13:30:30;12.90;;;6.25;;
31043;SDS011;17710;52.520;13.352;2024-01-30T13:32:56;15.20;;;7.15;;
31043;SDS011;17710;52.520;13.352;2024-01-30T13:35:23;12.25;;;6.90;;
31043;SDS011;17710;52.520;13.352;2024-01-30T13:37:49;16.33;;;6.65;;
31043;SDS011;17710;52.520;13.352;2024-01-30T13:40:16;16.73;;;7.55;;
31043;SDS011;17710;52.520;13.352;2024-01-30T13:42:42;13.55;;;7.40;;
31043;SDS011;17710;52.520;13.352;2024-01-30T13:45:08;15.40;;;6.85;;
31043;SDS011;17710;52.520;13.352;2024-01-30T13:47:37;13.18;;;6.40;;
31043;SDS011;17710;52.520;13.352;2024-01-30T13:50:04;23.27;;;6.75;;
31043;SDS011;17710;52.520;13.352;2024-01-30T13:52:31;15.85;;;7.07;;
31043;SDS011;17710;52.520;13.352;2024-01-30T13:55:00;16.15;;;7.05;;
31043;SDS011;17710;52.520;13.352;2024-01-30T13:57:27;17.10;;;6.85;;
31043;SDS011;17710;52.520;13.352;2024-01-30T13:59:53;18.00;;;7.05;;
31043;SDS011;17710;52.520;13.352;2024-01-30T14:02:20;13.73;;;6.90;;
31043;SDS011;17710;52.520;13.352;2024-01-30T14:04:48;12.25;;;7.03;;
31043;SDS011;17710;52.520;13.352;2024-01-30T14:07:14;13.32;;;6.40;;
31043;SDS011;17710;52.520;13.352;2024-01-30T14:09:40;14.20;;;7.05;;
31043;SDS011;17710;52.520;13.352;2024-01-30T14:12:07;12.73;;;6.68;;
31043;SDS011;17710;52.520;13.352;2024-01-30T14:14:34;14.65;;;6.95;;
31043;SDS011;17710;52.520;13.352;2024-01-30T14:17:00;16.10;;;7.03;;
31043;SDS011;17710;52.520;13.352;2024-01-30T14:19:27;14.32;;;6.78;;
31043;SDS011;17710;52.520;13.352;2024-01-30T14:21:55;14.13;;;7.15;;